This is the latest recevied weather packets stored in our database for station/object WX2NJ. If no packets are shown the sender has not sent any weather packets the latest 10 day(s).
| Time | Temp. | Humidity | Pressure | Rain* | Wind** | Luminosity | Snow |
|---|---|---|---|---|---|---|---|
| 1777648296 | 16.67° C | 47% | 1017.5 hPa | 0 mm | - | 196 W/m² | - |
| 1777647992 | 16.11° C | 49% | 1017.4 hPa | 0 mm | - | 193 W/m² | - |
| 1777647688 | 15.56° C | 46% | 1017.3 hPa | 0 mm | - | 203 W/m² | - |
| 1777647384 | 15.56° C | 49% | 1017.2 hPa | 0 mm | - | 190 W/m² | - |
| 1777647083 | 16.11° C | 50% | 1017.3 hPa | 0 mm | - | 186 W/m² | - |
| 1777646779 | 15° C | 50% | 1017.5 hPa | 0 mm | - | 179 W/m² | - |
| 1777646478 | 16.11° C | 49% | 1017.4 hPa | 0 mm | - | 73 W/m² | - |
| 1777646175 | 15° C | 53% | 1017.4 hPa | 0 mm | - | 191 W/m² | - |
| 1777645873 | 15° C | 52% | 1017.4 hPa | 0 mm | - | 175 W/m² | - |
| 1777645570 | 14.44° C | 54% | 1017.4 hPa | 0 mm | - | 159 W/m² | - |
| 1777645266 | 15° C | 54% | 1017.3 hPa | 0 mm | - | 158 W/m² | - |
| 1777644961 | 14.44° C | 55% | 1017.4 hPa | 0 mm | - | 154 W/m² | - |
| 1777644660 | 14.44° C | 55% | 1017.4 hPa | 0 mm | - | 155 W/m² | - |
| 1777644355 | 15° C | 53% | 1017.5 hPa | 0 mm | - | 152 W/m² | - |
| 1777644051 | 15° C | 55% | 1017.4 hPa | 0 mm | - | 150 W/m² | - |
| 1777643748 | 15° C | 54% | 1017.3 hPa | 0 mm | - | 147 W/m² | - |
| 1777643446 | 14.44° C | 56% | 1017.3 hPa | 0 mm | - | 143 W/m² | - |
| 1777643143 | 13.89° C | 57% | 1017.4 hPa | 0 mm | - | 146 W/m² | - |
| 1777642839 | 14.44° C | 57% | 1017.4 hPa | 0 mm | - | 143 W/m² | - |
| 1777642536 | 13.89° C | 55% | 1017.6 hPa | 0 mm | - | 141 W/m² | - |
| 1777642233 | 13.89° C | 53% | 1017.5 hPa | 0 mm | - | 138 W/m² | - |
| 1777641930 | 13.89° C | 58% | 1017.4 hPa | 0 mm | - | 137 W/m² | - |
| 1777641625 | 13.33° C | 56% | 1017.6 hPa | 0 mm | - | 136 W/m² | - |
| 1777641320 | 13.89° C | 57% | 1017.6 hPa | 0 mm | - | 136 W/m² | - |
| 1777641016 | 13.33° C | 60% | 1017.7 hPa | 0 mm | - | 138 W/m² | - |
* Rain latest hour (hover to see other rain measurements)
** Current wind speed in m/s (hover to see current wind gust speed)